createdAt,value
2022-10-23T00:00:07.931Z,12.91
2022-10-23T00:02:42.199Z,12.89
2022-10-23T00:05:16.144Z,12.82
2022-10-23T00:07:53.234Z,12.74
2022-10-23T00:10:28.830Z,12.67
2022-10-23T00:13:03.856Z,12.65
2022-10-23T00:15:38.494Z,12.62
2022-10-23T00:18:12.175Z,12.57
2022-10-23T00:20:45.904Z,12.49
2022-10-23T00:23:19.435Z,12.44
2022-10-23T00:25:53.375Z,12.41
2022-10-23T00:28:28.337Z,12.41
2022-10-23T00:31:03.266Z,12.39
2022-10-23T00:33:37.449Z,12.41
2022-10-23T00:36:14.122Z,12.42
2022-10-23T00:38:47.985Z,12.45
2022-10-23T00:41:23.889Z,12.42
2022-10-23T00:44:06.640Z,12.35
2022-10-23T00:46:40.835Z,12.31
2022-10-23T00:49:15.734Z,12.29
2022-10-23T00:51:53.790Z,12.23
2022-10-23T00:54:30.527Z,12.16
2022-10-23T00:57:08.221Z,12.11
2022-10-23T00:59:43.105Z,12.07
2022-10-23T01:02:17.195Z,12.03
2022-10-23T01:04:50.850Z,12.00
2022-10-23T01:07:30.413Z,11.98
2022-10-23T01:10:10.176Z,11.96
2022-10-23T01:12:51.506Z,11.98
2022-10-23T01:15:32.364Z,12.01
2022-10-23T01:18:12.847Z,12.07
2022-10-23T01:20:51.659Z,12.08
2022-10-23T01:23:47.626Z,12.03
2022-10-23T01:26:33.268Z,11.97
2022-10-23T01:29:16.778Z,11.93
2022-10-23T01:31:54.967Z,11.89
2022-10-23T01:34:33.450Z,11.91
2022-10-23T01:37:13.231Z,11.95
2022-10-23T01:39:53.483Z,11.98
2022-10-23T01:42:31.832Z,11.99
2022-10-23T01:45:12.062Z,12.00
2022-10-23T01:47:46.151Z,11.99
2022-10-23T01:50:22.932Z,12.00
2022-10-23T01:52:56.725Z,12.00
2022-10-23T01:55:32.556Z,12.02
2022-10-23T01:58:08.556Z,12.03
2022-10-23T02:00:46.415Z,12.04
2022-10-23T02:03:21.463Z,12.07
2022-10-23T02:05:55.176Z,12.05
2022-10-23T02:08:28.945Z,12.02
2022-10-23T02:11:09.191Z,11.98
2022-10-23T02:13:47.689Z,11.96
2022-10-23T02:16:30.153Z,11.95
2022-10-23T02:19:14.039Z,11.88
2022-10-23T02:21:53.946Z,11.86
2022-10-23T02:24:34.420Z,11.82
2022-10-23T02:27:14.064Z,11.78
2022-10-23T02:29:51.187Z,11.75
2022-10-23T02:32:29.079Z,11.74
2022-10-23T02:35:02.940Z,11.70
2022-10-23T02:37:36.801Z,11.70
2022-10-23T02:40:12.164Z,11.66
2022-10-23T02:42:51.962Z,11.59
2022-10-23T02:45:32.852Z,11.54
2022-10-23T02:48:15.529Z,11.57
2022-10-23T02:50:55.419Z,11.52
2022-10-23T02:53:38.181Z,11.47
2022-10-23T02:56:18.808Z,11.43
2022-10-23T02:59:00.764Z,11.43
2022-10-23T03:01:42.151Z,11.41
2022-10-23T03:04:20.320Z,11.37
2022-10-23T03:06:54.020Z,11.35
2022-10-23T03:09:28.113Z,11.34
2022-10-23T03:12:01.602Z,11.33
2022-10-23T03:14:35.348Z,11.30
2022-10-23T03:17:08.801Z,11.29
2022-10-23T03:19:43.918Z,11.28
2022-10-23T03:22:17.666Z,11.24
2022-10-23T03:24:51.369Z,11.23
2022-10-23T03:27:24.887Z,11.21
2022-10-23T03:29:58.712Z,11.21
2022-10-23T03:32:32.207Z,11.20
2022-10-23T03:35:08.300Z,11.18
2022-10-23T03:37:41.969Z,11.15
2022-10-23T03:40:15.917Z,11.14
2022-10-23T03:42:49.429Z,11.13
2022-10-23T03:45:23.112Z,11.10
2022-10-23T03:47:56.542Z,11.09
2022-10-23T03:50:31.568Z,11.07
2022-10-23T03:53:05.092Z,11.04
2022-10-23T03:55:38.795Z,11.02
2022-10-23T03:58:12.499Z,10.97
2022-10-23T04:00:46.264Z,10.97
2022-10-23T04:03:19.761Z,10.98
2022-10-23T04:05:54.813Z,10.95
2022-10-23T04:08:28.406Z,10.92
2022-10-23T04:11:02.235Z,10.90
2022-10-23T04:13:35.771Z,10.87
2022-10-23T04:16:09.508Z,10.85
2022-10-23T04:18:43.107Z,10.82
2022-10-23T04:21:18.363Z,10.80
2022-10-23T04:23:51.823Z,10.80
2022-10-23T04:26:25.621Z,10.77
2022-10-23T04:28:59.085Z,10.74
2022-10-23T04:31:32.763Z,10.69
2022-10-23T04:36:46.431Z,10.61
2022-10-23T04:39:20.128Z,10.62
2022-10-23T04:41:53.749Z,10.58
2022-10-23T04:44:27.331Z,10.57
2022-10-23T04:47:01.037Z,10.54
2022-10-23T04:49:34.636Z,10.52
2022-10-23T04:52:09.781Z,10.52
2022-10-23T04:54:43.291Z,10.49
2022-10-23T04:57:17.006Z,10.47
2022-10-23T04:59:50.538Z,10.46
2022-10-23T05:02:24.462Z,10.43
2022-10-23T05:04:58.024Z,10.42
2022-10-23T05:07:33.074Z,10.39
2022-10-23T05:10:07.625Z,10.37
2022-10-23T05:12:41.436Z,10.37
2022-10-23T05:15:14.883Z,10.34
2022-10-23T05:17:53.854Z,10.35
2022-10-23T05:20:32.044Z,10.30
2022-10-23T05:23:10.435Z,10.30
2022-10-23T05:25:43.874Z,10.31
2022-10-23T05:28:17.567Z,10.30
2022-10-23T05:30:51.380Z,10.29
2022-10-23T05:33:25.152Z,10.30
2022-10-23T05:35:59.763Z,10.27
2022-10-23T05:38:36.672Z,10.25
2022-10-23T05:41:10.352Z,10.22
2022-10-23T05:43:44.080Z,10.21
2022-10-23T05:46:17.548Z,10.19
2022-10-23T05:48:52.239Z,10.18
2022-10-23T05:51:25.809Z,10.18
2022-10-23T05:54:00.801Z,10.16
2022-10-23T05:56:34.727Z,10.15
2022-10-23T05:59:09.044Z,10.13
2022-10-23T06:01:42.842Z,10.12
2022-10-23T06:04:16.584Z,10.10
2022-10-23T06:06:50.216Z,10.10
2022-10-23T06:09:25.373Z,10.08
2022-10-23T06:11:58.924Z,10.09
2022-10-23T06:14:32.685Z,10.09
2022-10-23T06:17:06.466Z,10.11
2022-10-23T06:19:40.300Z,10.15
2022-10-23T06:22:14.070Z,10.17
2022-10-23T06:24:49.196Z,10.20
2022-10-23T06:27:22.796Z,10.22
2022-10-23T06:29:56.514Z,10.26
2022-10-23T06:32:32.696Z,10.29
2022-10-23T06:35:07.420Z,10.36
2022-10-23T06:37:41.172Z,10.38
2022-10-23T06:40:16.352Z,10.46
2022-10-23T06:42:49.810Z,10.48
2022-10-23T06:45:23.547Z,10.51
2022-10-23T06:47:57.059Z,10.50
2022-10-23T06:50:32.037Z,10.48
2022-10-23T06:53:06.109Z,10.49
2022-10-23T06:55:41.233Z,10.56
2022-10-23T06:58:14.903Z,10.57
2022-10-23T07:00:48.609Z,10.61
2022-10-23T07:03:22.207Z,10.65
2022-10-23T07:05:56.844Z,10.65
2022-10-23T07:08:31.013Z,10.64
2022-10-23T07:11:08.264Z,10.69
2022-10-23T07:13:42.580Z,10.80
2022-10-23T07:16:18.902Z,11.36
2022-10-23T07:18:59.304Z,11.71
2022-10-23T07:21:34.885Z,11.68
2022-10-23T07:24:10.184Z,11.59
2022-10-23T07:26:45.289Z,11.54
2022-10-23T07:29:18.808Z,11.49
2022-10-23T07:31:52.467Z,11.48
2022-10-23T07:34:25.999Z,11.57
2022-10-23T07:36:59.921Z,11.52
2022-10-23T07:39:33.375Z,11.61
2022-10-23T07:42:10.495Z,11.60
2022-10-23T07:44:44.382Z,11.51
2022-10-23T07:47:18.168Z,11.59
2022-10-23T07:49:52.629Z,11.67
2022-10-23T07:52:26.506Z,11.88
2022-10-23T07:55:00.389Z,11.99
2022-10-23T07:57:35.436Z,12.09
2022-10-23T08:00:11.071Z,12.17
2022-10-23T08:02:44.934Z,12.24
2022-10-23T08:05:21.458Z,12.25
2022-10-23T08:07:55.360Z,12.40
2022-10-23T08:10:28.937Z,12.47
2022-10-23T08:13:04.059Z,12.62
2022-10-23T08:15:37.992Z,12.77
2022-10-23T08:18:11.876Z,13.03
2022-10-23T08:20:47.793Z,13.30
2022-10-23T08:23:21.691Z,13.43
2022-10-23T08:26:00.212Z,13.60
2022-10-23T08:28:35.513Z,13.68
2022-10-23T08:31:10.669Z,13.79
2022-10-23T08:33:44.593Z,13.95
2022-10-23T08:36:21.261Z,14.17
2022-10-23T08:38:57.020Z,14.42
2022-10-23T08:41:35.622Z,14.41
2022-10-23T08:44:20.743Z,14.59
2022-10-23T08:47:01.953Z,14.65
2022-10-23T08:49:46.086Z,14.61
2022-10-23T08:52:30.010Z,14.74
2022-10-23T08:55:16.455Z,14.75
2022-10-23T08:57:56.298Z,15.00
2022-10-23T09:00:32.003Z,15.23
2022-10-23T09:03:06.595Z,15.32
2022-10-23T09:06:01.739Z,15.28
2022-10-23T09:08:45.259Z,15.05
2022-10-23T09:11:28.863Z,14.90
2022-10-23T09:14:27.930Z,14.92
2022-10-23T09:17:18.660Z,15.01
2022-10-23T09:20:02.967Z,15.21
2022-10-23T09:22:36.722Z,15.41
2022-10-23T09:25:12.338Z,15.44
2022-10-23T09:27:50.638Z,15.38
2022-10-23T09:30:33.053Z,15.45
2022-10-23T09:33:19.553Z,15.53
2022-10-23T09:35:56.479Z,15.47
2022-10-23T09:38:35.093Z,15.45
2022-10-23T09:41:15.139Z,15.45
2022-10-23T09:44:00.348Z,15.62
2022-10-23T09:46:41.161Z,15.68
2022-10-23T09:49:21.987Z,15.77
2022-10-23T09:52:01.812Z,15.76
2022-10-23T09:54:39.040Z,15.69
2022-10-23T09:57:23.868Z,15.70
2022-10-23T10:00:00.082Z,15.77
2022-10-23T10:02:35.800Z,15.71
2022-10-23T10:05:24.099Z,15.61
2022-10-23T10:08:06.722Z,15.50
2022-10-23T10:10:46.134Z,15.52
2022-10-23T10:13:37.535Z,15.73
2022-10-23T10:16:15.325Z,15.75
2022-10-23T10:18:56.413Z,15.82
2022-10-23T10:21:37.978Z,15.98
2022-10-23T10:24:18.312Z,16.01
2022-10-23T10:26:59.298Z,16.17
2022-10-23T10:29:51.391Z,16.16
2022-10-23T10:32:36.718Z,16.09
2022-10-23T10:35:26.565Z,16.12
2022-10-23T10:38:32.378Z,16.22
2022-10-23T10:41:26.204Z,16.16
2022-10-23T10:44:16.992Z,16.29
2022-10-23T10:46:57.632Z,16.45
2022-10-23T10:49:37.511Z,16.27
2022-10-23T10:52:18.071Z,16.33
2022-10-23T10:55:03.545Z,16.30
2022-10-23T10:57:41.172Z,16.59
2022-10-23T11:00:17.945Z,16.69
2022-10-23T11:02:56.272Z,16.77
2022-10-23T11:05:33.317Z,16.78
2022-10-23T11:08:12.003Z,16.62
2022-10-23T11:10:51.322Z,16.67
2022-10-23T11:13:28.434Z,16.79
2022-10-23T11:16:06.781Z,16.75
2022-10-23T11:18:43.779Z,16.59
2022-10-23T11:21:27.747Z,16.57
2022-10-23T11:24:53.451Z,16.67
2022-10-23T11:28:03.312Z,16.72
2022-10-23T11:30:47.627Z,16.79
2022-10-23T11:34:10.043Z,16.84
2022-10-23T11:36:46.953Z,16.93
2022-10-23T11:39:23.563Z,17.12
2022-10-23T11:41:58.991Z,17.18
2022-10-23T11:44:46.185Z,17.26
2022-10-23T11:47:41.608Z,17.35
2022-10-23T11:50:24.724Z,17.30
2022-10-23T11:53:14.995Z,17.29
2022-10-23T11:56:01.410Z,17.38
2022-10-23T11:58:44.530Z,17.58
2022-10-23T12:01:31.438Z,17.52
2022-10-23T12:04:17.620Z,17.41
2022-10-23T12:06:53.955Z,17.37
2022-10-23T12:09:42.354Z,17.37
2022-10-23T12:12:28.163Z,17.38
2022-10-23T12:15:21.203Z,17.38
2022-10-23T12:18:08.775Z,17.42
2022-10-23T12:20:49.402Z,17.47
2022-10-23T12:23:48.073Z,17.58
2022-10-23T12:26:43.456Z,17.67
2022-10-23T12:29:27.716Z,17.69
2022-10-23T12:32:14.944Z,17.59
2022-10-23T12:35:14.285Z,17.46
2022-10-23T12:38:10.725Z,17.48
2022-10-23T12:40:46.191Z,17.44
2022-10-23T12:43:26.967Z,17.40
2022-10-23T12:46:05.945Z,17.28
2022-10-23T12:48:49.116Z,17.30
2022-10-23T12:51:27.422Z,17.29
2022-10-23T12:54:01.436Z,17.33
2022-10-23T12:56:38.933Z,17.39
2022-10-23T12:59:18.472Z,17.38
2022-10-23T13:01:53.084Z,17.50
2022-10-23T13:04:30.495Z,17.57
2022-10-23T13:07:05.714Z,17.71
2022-10-23T13:09:42.078Z,17.79
2022-10-23T13:12:22.384Z,17.80
2022-10-23T13:14:59.041Z,17.70
2022-10-23T13:17:38.853Z,17.72
2022-10-23T13:20:22.128Z,17.68
2022-10-23T13:23:02.194Z,17.65
2022-10-23T13:25:38.443Z,17.63
2022-10-23T13:28:24.900Z,17.59
2022-10-23T13:31:24.071Z,17.54
2022-10-23T13:34:17.579Z,17.48
2022-10-23T13:37:00.592Z,17.54
2022-10-23T13:39:35.773Z,17.49
2022-10-23T13:42:15.223Z,17.48
2022-10-23T13:44:49.282Z,17.47
2022-10-23T13:47:23.304Z,17.45
2022-10-23T13:49:57.027Z,17.58
2022-10-23T13:52:30.650Z,17.58
2022-10-23T13:55:19.346Z,17.60
2022-10-23T13:57:52.923Z,17.59
2022-10-23T14:00:26.591Z,17.57
2022-10-23T14:03:00.224Z,17.53
2022-10-23T14:05:34.119Z,17.54
2022-10-23T14:08:07.874Z,17.54
2022-10-23T14:10:43.029Z,17.37
2022-10-23T14:13:17.088Z,17.38
2022-10-23T14:15:54.383Z,17.31
2022-10-23T14:18:27.945Z,17.23
2022-10-23T14:21:02.143Z,17.18
2022-10-23T14:23:36.209Z,17.09
2022-10-23T14:26:13.291Z,17.05
2022-10-23T14:28:46.828Z,17.04
2022-10-23T14:31:20.923Z,17.07
2022-10-23T14:33:56.893Z,17.02
2022-10-23T14:36:38.685Z,16.95
2022-10-23T14:39:24.220Z,16.87
2022-10-23T14:41:59.372Z,16.79
2022-10-23T14:44:33.887Z,16.78
2022-10-23T14:47:07.834Z,16.78
2022-10-23T14:49:42.461Z,16.75
2022-10-23T14:52:16.256Z,16.73
2022-10-23T14:54:51.557Z,16.70
2022-10-23T14:57:26.751Z,16.65
2022-10-23T15:00:00.245Z,16.70
2022-10-23T15:02:34.181Z,16.62
2022-10-23T15:05:08.299Z,16.55
2022-10-23T15:07:42.169Z,16.52
2022-10-23T15:12:56.020Z,16.47
2022-10-23T15:15:29.735Z,16.40
2022-10-23T15:18:03.451Z,16.33
2022-10-23T15:20:37.132Z,16.34
2022-10-23T15:23:10.928Z,16.35
2022-10-23T15:25:44.530Z,16.28
2022-10-23T15:28:19.780Z,16.24
2022-10-23T15:30:53.910Z,16.18
2022-10-23T15:33:28.567Z,16.12
2022-10-23T15:36:02.165Z,16.05
2022-10-23T15:38:36.020Z,16.09
2022-10-23T15:41:17.009Z,16.03
2022-10-23T15:43:56.043Z,15.96
2022-10-23T15:46:29.783Z,15.88
2022-10-23T15:49:03.827Z,15.80
2022-10-23T15:51:38.167Z,15.73
2022-10-23T15:54:16.607Z,15.66
2022-10-23T15:56:52.470Z,15.63
2022-10-23T15:59:27.915Z,15.59
2022-10-23T16:02:01.776Z,15.61
2022-10-23T16:04:36.339Z,15.63
2022-10-23T16:07:10.059Z,15.59
2022-10-23T16:09:43.949Z,15.61
2022-10-23T16:12:18.331Z,15.65
2022-10-23T16:14:53.494Z,15.74
2022-10-23T16:17:26.946Z,15.79
2022-10-23T16:20:00.784Z,15.75
2022-10-23T16:22:34.899Z,15.70
2022-10-23T16:25:09.283Z,15.60
2022-10-23T16:27:43.170Z,15.54
2022-10-23T16:30:18.774Z,15.53
2022-10-23T16:32:52.599Z,15.48
2022-10-23T16:35:26.344Z,15.53
2022-10-23T16:37:59.929Z,15.55
2022-10-23T16:40:33.939Z,15.49
2022-10-23T16:43:07.453Z,15.47
2022-10-23T16:45:42.633Z,15.44
2022-10-23T16:48:16.189Z,15.53
2022-10-23T16:50:49.883Z,15.61
2022-10-23T16:53:26.688Z,15.56
2022-10-23T16:56:00.454Z,15.52
2022-10-23T16:58:34.570Z,15.50
2022-10-23T17:01:12.058Z,15.50
2022-10-23T17:03:50.520Z,15.49
2022-10-23T17:06:26.406Z,15.47
2022-10-23T17:09:01.416Z,15.50
2022-10-23T17:11:38.124Z,15.48
2022-10-23T17:14:16.002Z,15.45
2022-10-23T17:16:52.905Z,15.42
2022-10-23T17:19:45.521Z,15.38
2022-10-23T17:22:19.948Z,15.34
2022-10-23T17:24:54.221Z,15.29
2022-10-23T17:27:28.391Z,15.26
2022-10-23T17:30:01.965Z,15.29
2022-10-23T17:32:37.662Z,15.24
2022-10-23T17:35:11.659Z,15.29
2022-10-23T17:37:45.576Z,15.25
2022-10-23T17:40:22.748Z,15.20
2022-10-23T17:42:58.847Z,15.22
2022-10-23T17:45:35.722Z,15.23
2022-10-23T17:48:10.886Z,15.22
2022-10-23T17:50:44.687Z,15.25
2022-10-23T17:53:18.744Z,15.22
2022-10-23T17:55:52.521Z,15.16
2022-10-23T17:58:26.290Z,15.17
2022-10-23T18:01:05.595Z,15.19
2022-10-23T18:03:41.395Z,15.18
2022-10-23T18:06:17.752Z,15.15
2022-10-23T18:08:51.733Z,15.15
2022-10-23T18:11:27.378Z,15.08
2022-10-23T18:14:02.129Z,15.10
2022-10-23T18:16:40.417Z,15.10
2022-10-23T18:19:18.014Z,15.06
2022-10-23T18:21:51.773Z,15.11
2022-10-23T18:24:26.462Z,15.10
2022-10-23T18:26:59.902Z,15.07
2022-10-23T18:29:33.657Z,15.07
2022-10-23T18:32:07.319Z,15.09
2022-10-23T18:34:42.483Z,15.12
2022-10-23T18:37:16.140Z,15.16
2022-10-23T18:39:49.958Z,15.19
2022-10-23T18:42:23.520Z,15.19
2022-10-23T18:44:57.326Z,15.18
2022-10-23T18:47:31.332Z,15.13
2022-10-23T18:50:07.539Z,15.14
2022-10-23T18:52:41.203Z,15.09
2022-10-23T18:55:15.404Z,15.07
2022-10-23T18:57:49.136Z,15.07
2022-10-23T19:00:22.928Z,15.07
2022-10-23T19:02:56.613Z,15.14
2022-10-23T19:05:32.114Z,15.16
2022-10-23T19:08:06.163Z,15.21
2022-10-23T19:10:41.668Z,15.17
2022-10-23T19:13:16.950Z,15.11
2022-10-23T19:15:50.685Z,15.10
2022-10-23T19:18:24.211Z,15.05
2022-10-23T19:21:01.435Z,15.04
2022-10-23T19:23:38.202Z,15.09
2022-10-23T19:26:14.080Z,15.07
2022-10-23T19:28:49.185Z,15.06
2022-10-23T19:31:23.428Z,15.08
2022-10-23T19:33:57.000Z,15.08
2022-10-23T19:36:32.889Z,15.09
2022-10-23T19:39:06.628Z,15.07
2022-10-23T19:41:40.424Z,15.06
2022-10-23T19:44:14.554Z,15.08
2022-10-23T19:46:48.661Z,15.12
2022-10-23T19:49:23.811Z,15.13
2022-10-23T19:51:58.995Z,15.14
2022-10-23T19:54:33.127Z,15.13
2022-10-23T19:57:07.175Z,15.14
2022-10-23T19:59:40.891Z,15.08
2022-10-23T20:02:14.737Z,15.08
2022-10-23T20:04:48.663Z,15.10
2022-10-23T20:07:23.780Z,15.08
2022-10-23T20:09:57.300Z,15.06
2022-10-23T20:12:31.046Z,14.99
2022-10-23T20:15:05.066Z,14.98
2022-10-23T20:17:39.043Z,14.95
2022-10-23T20:20:12.669Z,14.98
2022-10-23T20:22:49.978Z,14.97
2022-10-23T20:25:25.589Z,14.96
2022-10-23T20:27:59.316Z,14.94
2022-10-23T20:30:33.211Z,14.98
2022-10-23T20:33:07.093Z,14.95
2022-10-23T20:35:41.218Z,14.97
2022-10-23T20:38:16.383Z,14.96
2022-10-23T20:40:50.025Z,14.87
2022-10-23T20:43:23.828Z,14.83
2022-10-23T20:45:59.387Z,14.80
2022-10-23T20:48:36.251Z,14.71
2022-10-23T20:51:12.578Z,14.71
2022-10-23T20:53:48.236Z,14.65
2022-10-23T20:56:29.963Z,14.61
2022-10-23T20:59:05.968Z,14.57
2022-10-23T21:01:41.565Z,14.57
2022-10-23T21:04:15.374Z,14.50
2022-10-23T21:07:08.914Z,14.38
2022-10-23T21:09:44.888Z,14.35
2022-10-23T21:12:18.441Z,14.35
2022-10-23T21:14:53.955Z,14.41
2022-10-23T21:17:28.434Z,14.41
2022-10-23T21:20:02.316Z,14.52
2022-10-23T21:22:36.286Z,14.59
2022-10-23T21:25:11.804Z,14.62
2022-10-23T21:27:46.570Z,14.63
2022-10-23T21:30:20.441Z,14.66
2022-10-23T21:32:53.964Z,14.73
2022-10-23T21:35:30.036Z,14.73
2022-10-23T21:38:03.763Z,14.72
2022-10-23T21:40:38.941Z,14.76
2022-10-23T21:43:12.510Z,14.76
2022-10-23T21:45:46.220Z,14.79
2022-10-23T21:48:19.638Z,14.79
2022-10-23T21:50:58.153Z,14.83
2022-10-23T21:53:32.022Z,14.80
2022-10-23T21:56:07.762Z,14.86
2022-10-23T21:58:41.454Z,14.87
2022-10-23T22:01:15.232Z,14.83
2022-10-23T22:03:49.878Z,14.87
2022-10-23T22:06:25.280Z,14.94
2022-10-23T22:09:01.091Z,14.95
2022-10-23T22:11:36.432Z,15.04
2022-10-23T22:14:10.005Z,15.14
2022-10-23T22:16:43.832Z,15.19
2022-10-23T22:19:18.781Z,15.17
2022-10-23T22:21:52.709Z,15.18
2022-10-23T22:24:26.385Z,15.22
2022-10-23T22:27:01.530Z,15.27
2022-10-23T22:29:35.205Z,15.28
2022-10-23T22:32:09.102Z,15.25
2022-10-23T22:34:52.232Z,15.18
2022-10-23T22:37:26.659Z,15.24
2022-10-23T22:40:01.110Z,15.24
2022-10-23T22:42:44.594Z,15.25
2022-10-23T22:45:18.984Z,15.23
2022-10-23T22:47:52.907Z,15.15
2022-10-23T22:50:26.459Z,15.10
2022-10-23T22:53:02.820Z,15.09
2022-10-23T22:55:36.650Z,15.07
2022-10-23T22:58:11.979Z,15.06
2022-10-23T23:00:45.894Z,15.04
2022-10-23T23:03:19.686Z,15.06
2022-10-23T23:05:53.323Z,15.04
2022-10-23T23:08:27.498Z,15.05
2022-10-23T23:11:01.341Z,15.01
2022-10-23T23:13:36.617Z,15.00
2022-10-23T23:16:18.828Z,15.00
2022-10-23T23:18:52.883Z,14.97
2022-10-23T23:21:26.862Z,14.89
2022-10-23T23:24:02.828Z,14.83
2022-10-23T23:26:36.398Z,14.79
2022-10-23T23:29:13.590Z,14.73
2022-10-23T23:31:47.183Z,14.68
2022-10-23T23:34:21.047Z,14.64
2022-10-23T23:36:54.825Z,14.59
2022-10-23T23:39:31.384Z,14.54
2022-10-23T23:42:05.188Z,14.53
2022-10-23T23:44:50.202Z,14.48
2022-10-23T23:47:42.484Z,14.44
2022-10-23T23:50:16.743Z,14.42
2022-10-23T23:52:50.295Z,14.40
2022-10-23T23:55:24.008Z,14.40
2022-10-23T23:57:57.650Z,14.40
